Terminal Aerodrome Forecast
Issued by NWS Midland/Odessa, TX

Home | Current Version | Previous Version | Text Only | Print | Product List | Glossary On
Versions: 1 2 3 4 5 6 7 8 9 10 11 12 13 14 15 16 17 18 19 20
000
FTUS44 KMAF 041200 AAA
TAFMAF
TAF AMD
KMAF 041250Z 0413/0512 VRB05KT 5SM BR OVC090
     FM041500 05015G25KT 5SM BR OVC010
     FM042100 05019G28KT 1SM -FZRAPL BR OVC008
     FM050200 04019G28KT 1SM -SN BR OVC005=

USA.gov is the U.S. government's official web portal to all federal, state and local government web resources and services.